createdAt,value
2023-03-10T00:00:12.814Z,5.35
2023-03-10T00:02:44.888Z,4.97
2023-03-10T00:05:11.384Z,4.75
2023-03-10T00:07:37.924Z,4.95
2023-03-10T00:10:04.560Z,5.53
2023-03-10T00:12:30.886Z,4.57
2023-03-10T00:14:57.388Z,4.00
2023-03-10T00:17:23.830Z,4.82
2023-03-10T00:19:50.151Z,4.45
2023-03-10T00:22:16.608Z,4.38
2023-03-10T00:24:42.911Z,6.28
2023-03-10T00:27:09.241Z,4.57
2023-03-10T00:29:35.600Z,7.82
2023-03-10T00:32:01.969Z,5.45
2023-03-10T00:34:28.269Z,5.22
2023-03-10T00:36:54.624Z,4.72
2023-03-10T00:39:21.084Z,5.03
2023-03-10T00:41:48.699Z,4.75
2023-03-10T00:44:15.359Z,5.35
2023-03-10T00:46:41.807Z,6.63
2023-03-10T00:49:08.912Z,5.05
2023-03-10T00:51:35.947Z,6.82
2023-03-10T00:54:03.331Z,5.07
2023-03-10T00:56:30.506Z,4.82
2023-03-10T00:58:59.707Z,4.03
2023-03-10T01:01:27.738Z,5.90
2023-03-10T01:03:56.957Z,5.05
2023-03-10T01:06:24.608Z,4.75
2023-03-10T01:08:51.349Z,5.90
2023-03-10T01:11:20.956Z,4.63
2023-03-10T01:13:48.571Z,4.20
2023-03-10T01:16:15.941Z,4.50
2023-03-10T01:18:43.182Z,4.15
2023-03-10T01:21:15.989Z,3.70
2023-03-10T01:23:42.318Z,4.55
2023-03-10T01:26:08.843Z,4.43
2023-03-10T01:28:35.413Z,3.75
2023-03-10T01:31:01.763Z,3.80
2023-03-10T01:33:28.191Z,3.28
2023-03-10T01:35:54.595Z,3.85
2023-03-10T01:38:21.013Z,3.88
2023-03-10T01:40:49.818Z,3.42
2023-03-10T01:43:35.909Z,4.30
2023-03-10T01:46:02.241Z,2.97
2023-03-10T01:48:32.447Z,2.90
2023-03-10T01:50:59.035Z,2.53
2023-03-10T01:53:28.316Z,3.03
2023-03-10T01:55:59.753Z,2.50
2023-03-10T01:58:31.984Z,3.30
2023-03-10T02:00:58.401Z,2.72
2023-03-10T02:03:29.821Z,3.00
2023-03-10T02:05:59.663Z,2.55
2023-03-10T02:08:30.927Z,2.78
2023-03-10T02:10:59.082Z,2.83
2023-03-10T02:13:25.461Z,3.00
2023-03-10T02:15:52.089Z,2.70
2023-03-10T02:18:20.936Z,2.90
2023-03-10T02:20:59.320Z,2.47
2023-03-10T02:23:42.992Z,3.20
2023-03-10T02:26:22.225Z,2.90
2023-03-10T02:28:50.607Z,2.45
2023-03-10T02:31:17.469Z,2.45
2023-03-10T02:33:45.969Z,2.65
2023-03-10T02:36:13.780Z,2.60
2023-03-10T02:38:40.149Z,3.08
2023-03-10T02:41:28.733Z,2.45
2023-03-10T02:43:57.392Z,2.47
2023-03-10T02:46:24.115Z,3.15
2023-03-10T02:48:50.777Z,2.78
2023-03-10T02:51:26.027Z,2.92
2023-03-10T02:53:52.484Z,2.60
2023-03-10T02:56:18.849Z,2.53
2023-03-10T02:58:45.192Z,3.30
2023-03-10T03:01:11.638Z,2.40
2023-03-10T03:03:38.253Z,2.60
2023-03-10T03:06:05.428Z,2.28
2023-03-10T03:08:33.258Z,2.58
2023-03-10T03:11:00.303Z,2.33
2023-03-10T03:13:27.231Z,2.20
2023-03-10T03:15:53.649Z,2.33
2023-03-10T03:18:19.968Z,2.42
2023-03-10T03:20:46.440Z,2.70
2023-03-10T03:23:13.051Z,2.63
2023-03-10T03:25:41.344Z,2.67
2023-03-10T03:28:09.701Z,3.10
2023-03-10T03:30:36.544Z,2.30
2023-03-10T03:33:04.323Z,2.40
2023-03-10T03:35:33.135Z,2.17
2023-03-10T03:38:00.287Z,2.55
2023-03-10T03:40:28.819Z,3.05
2023-03-10T03:42:55.892Z,2.35
2023-03-10T03:45:25.787Z,2.67
2023-03-10T03:47:52.201Z,2.70
2023-03-10T03:50:20.171Z,3.05
2023-03-10T03:52:47.156Z,2.67
2023-03-10T03:55:15.901Z,2.63
2023-03-10T03:57:44.786Z,3.20
2023-03-10T04:00:16.113Z,3.85
2023-03-10T04:02:42.572Z,2.95
2023-03-10T04:05:09.110Z,2.65
2023-03-10T04:07:35.501Z,3.70
2023-03-10T04:10:01.994Z,3.22
2023-03-10T04:12:29.509Z,3.20
2023-03-10T04:14:55.808Z,3.47
2023-03-10T04:17:22.167Z,3.40
2023-03-10T04:20:00.716Z,3.40
2023-03-10T04:22:33.006Z,4.55
2023-03-10T04:24:59.346Z,4.15
2023-03-10T04:27:25.669Z,4.63
2023-03-10T04:29:52.018Z,3.97
2023-03-10T04:32:18.644Z,4.60
2023-03-10T04:34:44.994Z,3.95
2023-03-10T04:37:11.488Z,4.40
2023-03-10T04:39:38.100Z,4.22
2023-03-10T04:42:04.677Z,5.25
2023-03-10T04:44:31.742Z,5.45
2023-03-10T04:46:58.699Z,6.50
2023-03-10T04:49:25.108Z,5.07
2023-03-10T04:51:51.513Z,6.32
2023-03-10T04:54:17.882Z,5.38
2023-03-10T04:56:44.284Z,5.28
2023-03-10T04:59:10.872Z,4.88
2023-03-10T05:01:37.241Z,5.55
2023-03-10T05:04:05.549Z,5.30
2023-03-10T05:06:32.249Z,4.93
2023-03-10T05:08:58.608Z,4.95
2023-03-10T05:11:24.990Z,4.50
2023-03-10T05:13:51.340Z,4.30
2023-03-10T05:16:20.520Z,4.13
2023-03-10T05:18:47.018Z,3.83
2023-03-10T05:21:13.723Z,3.70
2023-03-10T05:23:40.782Z,4.10
2023-03-10T05:26:09.399Z,4.82
2023-03-10T05:28:35.836Z,3.70
2023-03-10T05:31:09.193Z,3.90
2023-03-10T05:33:35.541Z,3.50
2023-03-10T05:36:05.526Z,4.38
2023-03-10T05:38:31.891Z,3.78
2023-03-10T05:40:58.304Z,3.53
2023-03-10T05:43:24.732Z,3.63
2023-03-10T05:45:59.314Z,3.47
2023-03-10T05:48:26.441Z,4.00
2023-03-10T05:51:08.405Z,3.47
2023-03-10T05:53:35.469Z,3.83
2023-03-10T05:56:06.642Z,3.50
2023-03-10T05:58:33.048Z,3.20
2023-03-10T06:00:59.422Z,3.92
2023-03-10T06:03:25.992Z,3.80
2023-03-10T06:05:52.376Z,3.17
2023-03-10T06:08:18.765Z,3.35
2023-03-10T06:10:45.122Z,3.55
2023-03-10T06:13:11.464Z,3.28
2023-03-10T06:15:37.800Z,3.35
2023-03-10T06:18:04.261Z,3.40
2023-03-10T06:20:30.589Z,3.90
2023-03-10T06:22:56.934Z,3.20
2023-03-10T06:25:23.335Z,3.20
2023-03-10T06:27:49.691Z,4.93
2023-03-10T06:30:16.433Z,3.10
2023-03-10T06:32:43.167Z,3.55
2023-03-10T06:35:13.152Z,3.40
2023-03-10T06:37:39.709Z,2.92
2023-03-10T06:40:08.449Z,2.90
2023-03-10T06:42:34.873Z,2.80
2023-03-10T06:45:01.284Z,2.47
2023-03-10T06:47:27.685Z,3.95
2023-03-10T06:49:54.679Z,2.72
2023-03-10T06:52:21.083Z,2.35
2023-03-10T06:54:47.415Z,2.30
2023-03-10T06:57:13.725Z,2.83
2023-03-10T06:59:40.094Z,3.00
2023-03-10T07:02:07.218Z,2.90
2023-03-10T07:04:33.960Z,3.08
2023-03-10T07:07:00.289Z,2.63
2023-03-10T07:09:26.597Z,2.70
2023-03-10T07:11:52.931Z,2.50
2023-03-10T07:14:19.260Z,2.35
2023-03-10T07:16:46.569Z,2.38
2023-03-10T07:19:13.574Z,1.90
2023-03-10T07:21:39.984Z,2.20
2023-03-10T07:24:06.454Z,2.40
2023-03-10T07:26:32.890Z,2.15
2023-03-10T07:28:59.343Z,2.50
2023-03-10T07:31:26.085Z,2.90
2023-03-10T07:33:52.472Z,3.42
2023-03-10T07:36:20.193Z,3.28
2023-03-10T07:38:47.274Z,2.70
2023-03-10T07:41:17.288Z,3.08
2023-03-10T07:43:43.786Z,2.40
2023-03-10T07:46:13.385Z,2.90
2023-03-10T07:48:39.945Z,3.22
2023-03-10T07:51:06.912Z,3.20
2023-03-10T07:53:34.030Z,3.22
2023-03-10T07:56:04.750Z,3.00
2023-03-10T07:58:31.157Z,3.40
2023-03-10T08:00:59.006Z,2.85
2023-03-10T08:03:27.360Z,2.63
2023-03-10T08:05:53.860Z,5.20
2023-03-10T08:08:20.238Z,2.67
2023-03-10T08:10:46.780Z,2.80
2023-03-10T08:13:14.318Z,3.17
2023-03-10T08:15:40.946Z,2.85
2023-03-10T08:18:08.154Z,2.67
2023-03-10T08:20:35.874Z,2.80
2023-03-10T08:23:03.777Z,2.75
2023-03-10T08:25:30.573Z,2.88
2023-03-10T08:27:56.894Z,2.53
2023-03-10T08:30:23.523Z,2.50
2023-03-10T08:32:49.927Z,2.97
2023-03-10T08:35:16.838Z,2.88
2023-03-10T08:37:43.633Z,2.78
2023-03-10T08:40:13.377Z,2.50
2023-03-10T08:42:39.913Z,2.28
2023-03-10T08:45:08.852Z,2.03
2023-03-10T08:47:35.709Z,2.08
2023-03-10T08:50:02.273Z,2.38
2023-03-10T08:52:28.684Z,2.20
2023-03-10T08:54:55.088Z,2.58
2023-03-10T08:57:21.997Z,2.67
2023-03-10T08:59:48.418Z,2.60
2023-03-10T09:02:15.631Z,2.60
2023-03-10T09:04:42.649Z,2.30
2023-03-10T09:07:09.935Z,2.50
2023-03-10T09:09:36.275Z,2.75
2023-03-10T09:12:03.994Z,3.10
2023-03-10T09:14:30.473Z,2.65
2023-03-10T09:16:56.872Z,2.50
2023-03-10T09:19:24.245Z,2.50
2023-03-10T09:21:50.589Z,2.40
2023-03-10T09:24:17.991Z,2.55
2023-03-10T09:26:44.959Z,2.65
2023-03-10T09:29:12.002Z,2.13
2023-03-10T09:31:39.482Z,2.60
2023-03-10T09:34:08.118Z,2.70
2023-03-10T09:36:35.185Z,2.65
2023-03-10T09:39:02.312Z,3.60
2023-03-10T09:41:58.021Z,2.67
2023-03-10T09:44:42.691Z,2.45
2023-03-10T09:47:25.358Z,2.80
2023-03-10T09:50:13.856Z,2.17
2023-03-10T09:52:57.174Z,3.10
2023-03-10T09:55:47.974Z,2.88
2023-03-10T09:58:39.163Z,2.97
2023-03-10T10:01:13.305Z,3.80
2023-03-10T10:03:52.949Z,3.65
2023-03-10T10:06:34.052Z,4.28
2023-03-10T10:09:05.692Z,4.88
2023-03-10T10:11:33.934Z,4.55
2023-03-10T10:14:27.791Z,5.03
2023-03-10T10:17:20.190Z,4.40
2023-03-10T10:19:48.454Z,4.40
2023-03-10T10:22:22.058Z,3.72
2023-03-10T10:25:08.222Z,3.35
2023-03-10T10:27:39.818Z,4.53
2023-03-10T10:30:29.474Z,4.75
2023-03-10T10:33:06.416Z,5.13
2023-03-10T10:35:41.950Z,5.03
2023-03-10T10:38:11.541Z,5.57
2023-03-10T10:40:50.702Z,4.55
2023-03-10T10:43:19.942Z,3.80
2023-03-10T10:45:57.179Z,4.78
2023-03-10T10:48:43.814Z,4.57
2023-03-10T10:51:28.862Z,5.47
2023-03-10T10:54:01.052Z,4.10
2023-03-10T10:56:28.841Z,3.75
2023-03-10T10:59:20.009Z,3.88
2023-03-10T11:01:49.547Z,4.53
2023-03-10T11:04:17.582Z,3.17
2023-03-10T11:06:44.105Z,4.32
2023-03-10T11:09:18.271Z,3.38
2023-03-10T11:11:59.364Z,3.35
2023-03-10T11:14:36.056Z,3.17
2023-03-10T11:17:05.320Z,4.05
2023-03-10T11:19:45.860Z,4.47
2023-03-10T11:22:28.356Z,2.50
2023-03-10T11:25:23.937Z,3.30
2023-03-10T11:28:13.737Z,2.83
2023-03-10T11:30:49.097Z,2.30
2023-03-10T11:33:41.764Z,2.05
2023-03-10T11:36:23.306Z,2.15
2023-03-10T11:38:58.285Z,1.77
2023-03-10T11:41:28.559Z,2.33
2023-03-10T11:44:03.403Z,2.58
2023-03-10T11:46:36.528Z,4.13
2023-03-10T11:49:06.389Z,3.30
2023-03-10T11:51:52.952Z,2.50
2023-03-10T11:54:31.399Z,2.05
2023-03-10T11:56:59.547Z,2.97
2023-03-10T11:59:33.089Z,2.15
2023-03-10T12:02:10.047Z,2.30
2023-03-10T12:04:43.722Z,2.80
2023-03-10T12:07:20.982Z,3.10
2023-03-10T12:09:58.151Z,2.70
2023-03-10T12:12:32.208Z,2.35
2023-03-10T12:15:06.253Z,2.30
2023-03-10T12:17:32.704Z,2.63
2023-03-10T12:20:16.014Z,2.65
2023-03-10T12:22:46.722Z,2.50
2023-03-10T12:25:28.070Z,3.53
2023-03-10T12:28:20.038Z,3.08
2023-03-10T12:31:02.649Z,3.30
2023-03-10T12:33:33.883Z,3.15
2023-03-10T12:36:15.266Z,2.47
2023-03-10T12:38:41.913Z,2.90
2023-03-10T12:41:09.373Z,2.55
2023-03-10T12:44:23.168Z,3.63
2023-03-10T12:47:12.310Z,3.00
2023-03-10T12:49:49.845Z,4.68
2023-03-10T12:52:29.338Z,2.50
2023-03-10T12:55:15.809Z,2.72
2023-03-10T12:58:01.570Z,2.92
2023-03-10T13:00:33.909Z,2.55
2023-03-10T13:03:09.634Z,2.90
2023-03-10T13:05:42.566Z,3.42
2023-03-10T13:08:17.874Z,3.08
2023-03-10T13:10:44.831Z,2.53
2023-03-10T13:13:16.958Z,2.60
2023-03-10T13:15:43.387Z,3.08
2023-03-10T13:18:11.637Z,2.65
2023-03-10T13:20:38.316Z,2.78
2023-03-10T13:23:04.765Z,2.35
2023-03-10T13:25:33.666Z,2.92
2023-03-10T13:28:09.501Z,5.50
2023-03-10T13:33:02.473Z,4.68
2023-03-10T13:35:36.740Z,3.17
2023-03-10T13:38:07.326Z,2.55
2023-03-10T13:40:34.296Z,3.95
2023-03-10T13:43:00.806Z,3.60
2023-03-10T13:45:33.792Z,2.85
2023-03-10T13:48:05.116Z,3.00
2023-03-10T13:50:31.963Z,2.60
2023-03-10T13:52:59.596Z,5.15
2023-03-10T13:55:28.215Z,3.75
2023-03-10T13:57:55.988Z,2.83
2023-03-10T14:00:25.713Z,3.45
2023-03-10T14:02:53.453Z,5.40
2023-03-10T14:05:46.067Z,3.45
2023-03-10T14:08:32.747Z,2.97
2023-03-10T14:11:20.846Z,3.83
2023-03-10T14:13:47.711Z,3.00
2023-03-10T14:16:14.424Z,4.05
2023-03-10T14:18:42.827Z,4.07
2023-03-10T14:22:00.044Z,3.25
2023-03-10T14:24:28.123Z,3.58
2023-03-10T14:26:59.482Z,5.05
2023-03-10T14:29:27.033Z,7.57
2023-03-10T14:31:53.360Z,7.60
2023-03-10T14:34:28.832Z,7.18
2023-03-10T14:36:55.148Z,4.63
2023-03-10T14:39:21.482Z,3.20
2023-03-10T14:41:47.965Z,2.28
2023-03-10T14:44:14.374Z,5.53
2023-03-10T14:46:40.955Z,3.45
2023-03-10T14:49:14.666Z,3.05
2023-03-10T14:51:40.975Z,4.18
2023-03-10T14:54:24.939Z,4.45
2023-03-10T14:56:58.912Z,5.35
2023-03-10T14:59:28.082Z,4.20
2023-03-10T15:02:06.364Z,4.45
2023-03-10T15:04:32.930Z,3.67
2023-03-10T15:06:59.335Z,3.65
2023-03-10T15:09:25.685Z,3.20
2023-03-10T15:11:54.586Z,3.38
2023-03-10T15:14:33.238Z,3.33
2023-03-10T15:16:59.654Z,3.35
2023-03-10T15:19:27.813Z,2.75
2023-03-10T15:21:54.401Z,3.08
2023-03-10T15:24:20.839Z,2.58
2023-03-10T15:26:48.216Z,3.53
2023-03-10T15:29:16.421Z,2.78
2023-03-10T15:31:42.845Z,4.15
2023-03-10T15:34:09.408Z,2.75
2023-03-10T15:36:36.187Z,2.65
2023-03-10T15:39:04.139Z,3.00
2023-03-10T15:41:35.041Z,2.55
2023-03-10T15:44:01.577Z,2.30
2023-03-10T15:46:27.969Z,3.63
2023-03-10T15:48:54.448Z,2.38
2023-03-10T15:51:21.006Z,3.35
2023-03-10T15:53:47.391Z,2.40
2023-03-10T15:56:15.262Z,2.28
2023-03-10T15:58:41.919Z,2.10
2023-03-10T16:01:16.367Z,2.33
2023-03-10T16:03:43.110Z,2.70
2023-03-10T16:06:10.307Z,2.75
2023-03-10T16:08:40.054Z,3.15
2023-03-10T16:11:15.941Z,3.58
2023-03-10T16:13:45.061Z,2.78
2023-03-10T16:16:12.822Z,6.35
2023-03-10T16:18:39.190Z,3.50
2023-03-10T16:21:05.742Z,4.93
2023-03-10T16:23:33.292Z,3.40
2023-03-10T16:26:18.384Z,4.13
2023-03-10T16:28:47.706Z,5.25
2023-03-10T16:31:15.325Z,10.98
2023-03-10T16:33:42.170Z,7.47
2023-03-10T16:36:13.439Z,4.72
2023-03-10T16:38:40.060Z,7.13
2023-03-10T16:41:08.234Z,5.35
2023-03-10T16:43:34.627Z,5.07
2023-03-10T16:46:06.387Z,5.50
2023-03-10T16:48:33.771Z,4.78
2023-03-10T16:51:00.237Z,5.40
2023-03-10T16:53:26.693Z,5.68
2023-03-10T16:56:04.025Z,6.82
2023-03-10T16:58:30.758Z,8.27
2023-03-10T17:00:57.137Z,7.55
2023-03-10T17:03:23.635Z,6.07
2023-03-10T17:05:53.542Z,5.13
2023-03-10T17:08:21.471Z,7.20
2023-03-10T17:10:48.626Z,5.05
2023-03-10T17:13:15.129Z,5.30
2023-03-10T17:15:41.504Z,5.40
2023-03-10T17:18:07.823Z,8.20
2023-03-10T17:20:34.188Z,7.70
2023-03-10T17:23:00.574Z,11.80
2023-03-10T17:25:26.925Z,16.25
2023-03-10T17:27:53.436Z,15.48
2023-03-10T17:30:20.010Z,18.95
2023-03-10T17:32:48.429Z,19.42
2023-03-10T17:35:14.889Z,10.75
2023-03-10T17:37:41.493Z,17.95
2023-03-10T17:40:11.189Z,17.35
2023-03-10T17:42:37.509Z,22.02
2023-03-10T17:45:06.815Z,23.80
2023-03-10T17:47:33.370Z,17.08
2023-03-10T17:50:01.976Z,20.48
2023-03-10T17:52:29.304Z,21.13
2023-03-10T17:54:55.939Z,15.63
2023-03-10T17:57:22.290Z,19.88
2023-03-10T17:59:50.892Z,13.43
2023-03-10T18:02:17.343Z,11.63
2023-03-10T18:04:46.636Z,9.40
2023-03-10T18:07:13.396Z,9.45
2023-03-10T18:09:39.953Z,11.70
2023-03-10T18:12:06.669Z,6.93
2023-03-10T18:14:34.498Z,8.60
2023-03-10T18:17:02.872Z,8.50
2023-03-10T18:19:29.264Z,10.80
2023-03-10T18:21:55.596Z,10.65
2023-03-10T18:24:22.349Z,9.05
2023-03-10T18:26:48.914Z,7.13
2023-03-10T18:29:16.413Z,10.20
2023-03-10T18:31:42.758Z,9.15
2023-03-10T18:34:10.326Z,9.20
2023-03-10T18:36:36.809Z,9.27
2023-03-10T18:39:04.827Z,12.10
2023-03-10T18:41:32.507Z,12.52
2023-03-10T18:43:59.939Z,10.10
2023-03-10T18:46:27.052Z,11.80
2023-03-10T18:48:55.758Z,12.45
2023-03-10T18:51:27.661Z,9.95
2023-03-10T18:53:54.056Z,13.82
2023-03-10T18:56:20.644Z,11.38
2023-03-10T18:58:47.002Z,9.70
2023-03-10T19:01:14.640Z,13.82
2023-03-10T19:03:41.743Z,13.10
2023-03-10T19:06:08.368Z,15.32
2023-03-10T19:08:36.651Z,10.05
2023-03-10T19:11:03.748Z,12.57
2023-03-10T19:13:30.096Z,12.52
2023-03-10T19:15:56.873Z,12.10
2023-03-10T19:18:24.611Z,8.90
2023-03-10T19:20:51.430Z,11.77
2023-03-10T19:23:17.982Z,12.70
2023-03-10T19:25:44.486Z,12.43
2023-03-10T19:28:10.856Z,16.98
2023-03-10T19:30:42.716Z,14.93
2023-03-10T19:33:11.005Z,22.95
2023-03-10T19:35:38.066Z,15.50
2023-03-10T19:38:05.477Z,16.77
2023-03-10T19:40:32.606Z,15.70
2023-03-10T19:42:59.557Z,18.90
2023-03-10T19:45:26.196Z,16.92
2023-03-10T19:47:55.200Z,18.95
2023-03-10T19:50:21.917Z,17.83
2023-03-10T19:52:49.853Z,15.15
2023-03-10T19:55:23.344Z,17.60
2023-03-10T19:57:52.181Z,12.90
2023-03-10T20:00:24.972Z,14.48
2023-03-10T20:02:53.172Z,10.68
2023-03-10T20:05:20.600Z,11.55
2023-03-10T20:07:47.383Z,9.35
2023-03-10T20:10:15.798Z,9.40
2023-03-10T20:12:42.292Z,7.57
2023-03-10T20:15:10.301Z,7.53
2023-03-10T20:17:36.815Z,8.02
2023-03-10T20:20:09.942Z,7.25
2023-03-10T20:22:39.063Z,6.82
2023-03-10T20:25:07.534Z,6.40
2023-03-10T20:27:34.295Z,7.18
2023-03-10T20:30:00.706Z,6.78
2023-03-10T20:32:27.155Z,6.82
2023-03-10T20:34:54.623Z,6.07
2023-03-10T20:37:21.012Z,7.88
2023-03-10T20:39:47.472Z,6.03
2023-03-10T20:42:13.911Z,6.38
2023-03-10T20:44:40.532Z,6.10
2023-03-10T20:47:07.567Z,8.27
2023-03-10T20:49:33.906Z,7.38
2023-03-10T20:52:00.236Z,9.05
2023-03-10T20:54:26.797Z,8.25
2023-03-10T20:56:53.241Z,6.75
2023-03-10T20:59:19.690Z,7.85
2023-03-10T21:01:46.199Z,7.72
2023-03-10T21:04:12.546Z,9.07
2023-03-10T21:06:38.874Z,8.70
2023-03-10T21:09:05.857Z,6.30
2023-03-10T21:11:35.641Z,10.25
2023-03-10T21:14:02.086Z,6.78
2023-03-10T21:16:28.491Z,5.85
2023-03-10T21:18:54.830Z,7.25
2023-03-10T21:21:21.188Z,6.93
2023-03-10T21:23:47.832Z,7.00
2023-03-10T21:26:16.973Z,6.65
2023-03-10T21:28:44.023Z,8.65
2023-03-10T21:31:10.710Z,5.47
2023-03-10T21:33:37.146Z,5.95
2023-03-10T21:36:03.917Z,6.00
2023-03-10T21:38:30.302Z,5.50
2023-03-10T21:40:56.643Z,6.18
2023-03-10T21:43:23.113Z,5.00
2023-03-10T21:45:49.536Z,5.80
2023-03-10T21:48:15.986Z,4.35
2023-03-10T21:50:42.451Z,4.55
2023-03-10T21:53:09.210Z,5.10
2023-03-10T21:55:37.545Z,6.03
2023-03-10T21:58:05.651Z,5.32
2023-03-10T22:00:32.335Z,4.07
2023-03-10T22:02:59.055Z,4.95
2023-03-10T22:05:25.622Z,4.13
2023-03-10T22:07:52.157Z,3.92
2023-03-10T22:10:18.925Z,4.03
2023-03-10T22:12:45.675Z,5.30
2023-03-10T22:15:19.280Z,4.63
2023-03-10T22:17:45.912Z,3.97
2023-03-10T22:20:16.954Z,3.78
2023-03-10T22:22:43.362Z,5.30
2023-03-10T22:25:10.581Z,7.43
2023-03-10T22:27:36.942Z,7.05
2023-03-10T22:30:04.201Z,4.70
2023-03-10T22:32:30.574Z,4.18
2023-03-10T22:34:57.071Z,5.60
2023-03-10T22:37:23.497Z,4.55
2023-03-10T22:39:49.927Z,3.97
2023-03-10T22:42:16.599Z,3.58
2023-03-10T22:44:43.026Z,6.40
2023-03-10T22:47:09.435Z,4.03
2023-03-10T22:49:35.878Z,4.20
2023-03-10T22:52:06.846Z,3.70
2023-03-10T22:54:33.651Z,4.55
2023-03-10T22:57:00.122Z,3.47
2023-03-10T22:59:26.526Z,5.35
2023-03-10T23:01:53.263Z,5.63
2023-03-10T23:04:19.634Z,5.47
2023-03-10T23:06:46.032Z,5.47
2023-03-10T23:09:12.567Z,5.20
2023-03-10T23:11:39.011Z,6.10
2023-03-10T23:14:05.469Z,4.55
2023-03-10T23:16:36.763Z,7.43
2023-03-10T23:19:07.196Z,4.65
2023-03-10T23:21:35.285Z,4.50
2023-03-10T23:24:01.930Z,3.92
2023-03-10T23:26:30.050Z,3.80
2023-03-10T23:28:56.436Z,3.88
2023-03-10T23:31:22.913Z,5.25
2023-03-10T23:33:49.506Z,6.15
2023-03-10T23:36:15.997Z,3.30
2023-03-10T23:38:42.476Z,5.43
2023-03-10T23:41:09.020Z,4.40
2023-03-10T23:43:35.956Z,3.92
2023-03-10T23:46:07.597Z,4.45
2023-03-10T23:48:34.980Z,5.05
2023-03-10T23:51:02.756Z,3.63
2023-03-10T23:53:29.798Z,5.20
2023-03-10T23:56:00.231Z,5.20
2023-03-10T23:58:27.964Z,5.80
